createdAt,value
2019-04-22T00:00:41.293Z,13.20
2019-04-22T00:03:16.183Z,11.37
2019-04-22T00:06:06.668Z,11.27
2019-04-22T00:08:37.660Z,9.80
2019-04-22T00:11:19.552Z,9.13
2019-04-22T00:13:46.881Z,8.67
2019-04-22T00:16:19.818Z,7.50
2019-04-22T00:19:01.762Z,7.30
2019-04-22T00:21:19.467Z,7.47
2019-04-22T00:23:45.240Z,7.87
2019-04-22T00:26:26.090Z,6.43
2019-04-22T00:31:37.234Z,7.33
2019-04-22T00:34:03.197Z,7.20
2019-04-22T00:36:42.097Z,6.90
2019-04-22T00:39:18.459Z,6.83
2019-04-22T00:41:43.817Z,7.07
2019-04-22T00:44:22.267Z,7.20
2019-04-22T00:46:52.552Z,6.93
2019-04-22T00:50:00.223Z,6.57
2019-04-22T00:52:01.579Z,7.27
2019-04-22T00:54:25.309Z,7.43
2019-04-22T00:56:54.331Z,6.80
2019-04-22T00:59:23.788Z,6.50
2019-04-22T01:02:02.024Z,7.57
2019-04-22T01:04:34.768Z,6.43
2019-04-22T01:07:02.056Z,7.13
2019-04-22T01:09:30.107Z,7.20
2019-04-22T01:12:12.346Z,6.13
2019-04-22T01:14:37.269Z,7.10
2019-04-22T01:17:06.418Z,6.70
2019-04-22T01:19:47.158Z,6.97
2019-04-22T01:22:13.323Z,7.27
2019-04-22T01:24:40.268Z,6.53
2019-04-22T01:27:08.171Z,7.20
2019-04-22T01:29:39.624Z,6.43
2019-04-22T01:31:56.817Z,6.70
2019-04-22T01:34:44.144Z,6.83
2019-04-22T01:37:19.772Z,6.90
2019-04-22T01:40:00.141Z,6.90
2019-04-22T01:42:28.616Z,6.70
2019-04-22T01:44:59.035Z,6.97
2019-04-22T01:47:32.518Z,7.43
2019-04-22T01:49:59.180Z,7.20
2019-04-22T01:52:47.577Z,7.10
2019-04-22T01:55:12.617Z,7.13
2019-04-22T01:57:39.785Z,8.20
2019-04-22T02:00:00.833Z,7.50
2019-04-22T02:02:42.277Z,7.63
2019-04-22T02:05:15.748Z,7.50
2019-04-22T02:07:43.219Z,7.50
2019-04-22T02:10:22.851Z,7.93
2019-04-22T02:12:48.380Z,7.70
2019-04-22T02:15:16.990Z,8.20
2019-04-22T02:18:15.730Z,8.33
2019-04-22T02:20:18.386Z,8.47
2019-04-22T02:28:42.664Z,7.77
2019-04-22T02:46:34.877Z,8.13
2019-04-22T02:51:22.987Z,9.20
2019-04-22T02:56:31.871Z,9.67
2019-04-22T02:59:02.484Z,9.40
2019-04-22T03:01:33.120Z,9.43
2019-04-22T03:04:06.914Z,9.87
2019-04-22T03:09:03.847Z,10.20
2019-04-22T03:11:35.842Z,10.07
2019-04-22T03:16:40.758Z,9.87
2019-04-22T03:21:42.285Z,10.47
2019-04-22T03:26:42.131Z,11.80
2019-04-22T03:29:28.755Z,11.70
2019-04-22T03:39:59.728Z,11.53
2019-04-22T03:42:17.573Z,12.33
2019-04-22T03:44:49.571Z,12.27
2019-04-22T03:47:27.832Z,12.30
2019-04-22T03:50:04.435Z,12.20
2019-04-22T03:55:07.735Z,12.90
2019-04-22T03:57:38.507Z,11.73
2019-04-22T03:59:57.265Z,12.17
2019-04-22T04:10:10.349Z,11.23
2019-04-22T04:12:38.523Z,11.83
2019-04-22T04:17:53.916Z,11.53
2019-04-22T04:20:21.868Z,11.63
2019-04-22T04:22:54.207Z,11.17
2019-04-22T04:30:18.961Z,11.33
2019-04-22T04:53:06.106Z,8.87
2019-04-22T04:55:44.221Z,9.67
2019-04-22T04:58:22.089Z,10.27
2019-04-22T05:02:58.267Z,8.20
2019-04-22T05:05:35.289Z,8.40
2019-04-22T05:08:33.459Z,8.20
2019-04-22T05:10:57.487Z,7.97
2019-04-22T05:13:01.757Z,7.90
2019-04-22T05:18:14.816Z,7.20
2019-04-22T05:21:06.871Z,6.47
2019-04-22T05:23:16.672Z,7.77
2019-04-22T05:25:40.842Z,7.03
2019-04-22T05:28:16.457Z,6.80
2019-04-22T05:30:45.999Z,7.87
2019-04-22T05:33:21.693Z,7.07
2019-04-22T05:35:53.551Z,6.77
2019-04-22T05:38:30.786Z,6.43
2019-04-22T05:40:54.141Z,5.83
2019-04-22T05:43:21.307Z,5.70
2019-04-22T05:45:56.337Z,6.43
2019-04-22T05:48:29.551Z,4.73
2019-04-22T05:50:59.457Z,5.73
2019-04-22T05:53:37.243Z,5.63
2019-04-22T05:56:12.516Z,5.73
2019-04-22T05:58:46.498Z,4.57
2019-04-22T06:03:54.607Z,6.00
2019-04-22T06:08:48.835Z,6.27
2019-04-22T06:11:29.382Z,4.87
2019-04-22T06:13:46.638Z,5.60
2019-04-22T06:16:26.246Z,5.77
2019-04-22T06:19:03.007Z,5.70
2019-04-22T06:24:11.231Z,5.17
2019-04-22T06:32:05.541Z,5.13
2019-04-22T06:34:20.830Z,5.70
2019-04-22T06:36:46.367Z,5.87
2019-04-22T06:41:47.987Z,5.60
2019-04-22T06:44:22.192Z,6.00
2019-04-22T06:46:52.432Z,5.80
2019-04-22T06:49:22.781Z,5.93
2019-04-22T06:51:58.821Z,4.60
2019-04-22T06:54:28.273Z,5.17
2019-04-22T06:59:43.942Z,5.40
2019-04-22T07:02:02.286Z,5.10
2019-04-22T07:04:47.703Z,5.53
2019-04-22T07:12:05.026Z,5.23
2019-04-22T07:14:35.549Z,5.07
2019-04-22T07:17:07.508Z,4.97
2019-04-22T07:19:40.996Z,4.37
2019-04-22T07:22:13.514Z,4.77
2019-04-22T07:24:52.758Z,4.23
2019-04-22T07:27:18.822Z,4.30
2019-04-22T07:29:46.884Z,3.90
2019-04-22T07:32:16.534Z,4.47
2019-04-22T07:37:27.990Z,4.07
2019-04-22T07:39:54.995Z,4.23
2019-04-22T07:42:28.185Z,3.83
2019-04-22T07:47:32.701Z,4.40
2019-04-22T07:49:59.451Z,3.53
2019-04-22T07:52:30.327Z,4.23
2019-04-22T07:54:59.652Z,4.00
2019-04-22T07:57:32.477Z,4.50
2019-04-22T08:00:10.601Z,4.40
2019-04-22T08:02:37.448Z,4.23
2019-04-22T08:05:12.939Z,4.30
2019-04-22T08:07:45.335Z,4.97
2019-04-22T08:12:47.410Z,5.30
2019-04-22T08:15:12.589Z,5.40
2019-04-22T08:20:22.605Z,4.90
2019-04-22T08:22:42.698Z,4.33
2019-04-22T08:25:18.115Z,4.87
2019-04-22T08:27:50.800Z,5.10
2019-04-22T08:30:28.317Z,5.03
2019-04-22T08:32:54.540Z,4.90
2019-04-22T08:38:11.567Z,3.27
2019-04-22T08:43:07.207Z,5.40
2019-04-22T08:45:33.649Z,3.93
2019-04-22T08:48:00.976Z,3.67
2019-04-22T08:50:37.814Z,4.20
2019-04-22T08:53:08.123Z,3.83
2019-04-22T08:58:23.061Z,4.17
2019-04-22T09:00:43.924Z,3.20
2019-04-22T09:03:24.343Z,3.93
2019-04-22T09:06:02.021Z,4.07
2019-04-22T09:08:19.317Z,3.67
2019-04-22T09:10:48.634Z,4.33
2019-04-22T09:13:22.746Z,4.67
2019-04-22T09:15:48.766Z,4.60
2019-04-22T09:18:31.148Z,5.57
2019-04-22T09:21:08.789Z,5.10
2019-04-22T09:23:37.131Z,4.60
2019-04-22T09:26:01.405Z,5.37
2019-04-22T09:28:42.280Z,4.93
2019-04-22T09:31:06.609Z,5.37
2019-04-22T09:33:36.935Z,5.27
2019-04-22T09:36:16.220Z,5.57
2019-04-22T09:38:41.130Z,4.60
2019-04-22T09:41:11.931Z,4.73
2019-04-22T09:43:47.821Z,5.20
2019-04-22T09:46:19.844Z,4.70
2019-04-22T09:48:55.375Z,5.23
2019-04-22T09:51:18.669Z,5.33
2019-04-22T09:54:04.074Z,4.57
2019-04-22T09:58:59.358Z,5.23
2019-04-22T10:01:32.405Z,4.93
2019-04-22T10:04:05.380Z,5.40
2019-04-22T10:14:05.541Z,5.10
2019-04-22T10:19:12.457Z,6.10
2019-04-22T10:21:50.041Z,6.13
2019-04-22T10:24:13.811Z,6.70
2019-04-22T10:26:44.005Z,6.93
2019-04-22T10:29:17.025Z,7.03
2019-04-22T10:31:49.422Z,7.10
2019-04-22T10:34:09.261Z,7.97
2019-04-22T10:36:25.694Z,8.03
2019-04-22T10:38:55.518Z,8.70
2019-04-22T10:41:26.305Z,7.47
2019-04-22T10:43:57.055Z,7.47
2019-04-22T10:46:28.227Z,8.53
2019-04-22T10:48:58.148Z,8.40
2019-04-22T10:51:28.666Z,8.40
2019-04-22T10:53:59.625Z,8.30
2019-04-22T10:56:30.619Z,7.73
2019-04-22T10:59:00.609Z,7.37
2019-04-22T11:01:31.627Z,8.33
2019-04-22T11:04:01.554Z,7.70
2019-04-22T11:06:33.761Z,8.60
2019-04-22T11:09:04.949Z,10.20
2019-04-22T11:11:46.099Z,10.13
2019-04-22T11:14:07.136Z,10.93
2019-04-22T11:16:37.784Z,10.60
2019-04-22T11:19:09.803Z,9.00
2019-04-22T11:21:39.659Z,10.90
2019-04-22T11:24:10.464Z,11.07
2019-04-22T11:26:41.065Z,11.67
2019-04-22T11:29:12.070Z,12.57
2019-04-22T11:31:42.326Z,10.37
2019-04-22T11:34:13.005Z,10.37
2019-04-22T11:36:43.016Z,9.67
2019-04-22T11:39:13.578Z,11.63
2019-04-22T11:41:46.441Z,11.90
2019-04-22T11:44:17.149Z,11.40
2019-04-22T11:46:47.463Z,12.57
2019-04-22T11:49:18.182Z,14.03
2019-04-22T11:51:48.096Z,10.37
2019-04-22T11:54:18.918Z,13.50
2019-04-22T11:56:49.509Z,13.20
2019-04-22T11:59:20.411Z,12.83
2019-04-22T12:01:51.004Z,13.80
2019-04-22T12:04:22.013Z,13.33
2019-04-22T12:06:51.986Z,12.87
2019-04-22T12:09:21.773Z,13.20
2019-04-22T12:11:51.751Z,13.83
2019-04-22T12:14:22.336Z,14.57
2019-04-22T12:16:53.098Z,9.60
2019-04-22T12:19:23.214Z,13.63
2019-04-22T12:21:53.270Z,13.87
2019-04-22T12:24:23.543Z,13.93
2019-04-22T12:26:55.958Z,13.10
2019-04-22T12:29:26.938Z,14.20
2019-04-22T12:31:57.746Z,15.20
2019-04-22T12:34:29.124Z,14.17
2019-04-22T12:37:00.379Z,14.90
2019-04-22T12:39:31.515Z,14.90
2019-04-22T12:42:02.685Z,15.37
2019-04-22T12:44:32.832Z,13.37
2019-04-22T12:47:04.415Z,13.87
2019-04-22T12:49:36.953Z,14.50
2019-04-22T12:52:05.624Z,15.50
2019-04-22T12:54:35.218Z,15.67
2019-04-22T12:57:05.864Z,13.97
2019-04-22T12:59:35.650Z,15.47
2019-04-22T13:02:05.358Z,15.57
2019-04-22T13:04:36.236Z,15.53
2019-04-22T13:07:06.175Z,16.10
2019-04-22T13:09:36.969Z,15.93
2019-04-22T13:12:07.003Z,16.03
2019-04-22T13:14:36.921Z,14.77
2019-04-22T13:17:08.043Z,43.20
2019-04-22T13:19:38.095Z,15.07
2019-04-22T13:22:09.122Z,16.20
2019-04-22T13:24:39.699Z,14.37
2019-04-22T13:27:10.881Z,12.87
2019-04-22T13:29:41.213Z,10.57
2019-04-22T13:32:11.070Z,12.20
2019-04-22T13:34:46.512Z,12.60
2019-04-22T13:37:12.861Z,12.73
2019-04-22T13:39:43.209Z,11.90
2019-04-22T13:42:17.961Z,12.60
2019-04-22T13:44:44.278Z,12.10
2019-04-22T13:47:32.638Z,11.80
2019-04-22T13:52:48.512Z,10.87
2019-04-22T13:55:22.083Z,11.50
2019-04-22T13:57:39.385Z,11.60
2019-04-22T13:59:56.297Z,10.83
2019-04-22T14:02:42.532Z,10.53
2019-04-22T14:05:14.786Z,10.27
2019-04-22T14:07:44.566Z,10.00
2019-04-22T14:10:16.341Z,10.47
2019-04-22T14:12:46.755Z,10.00
2019-04-22T14:15:17.964Z,8.43
2019-04-22T14:17:49.137Z,7.93
2019-04-22T14:20:20.711Z,8.83
2019-04-22T14:22:52.574Z,9.27
2019-04-22T14:25:22.983Z,8.80
2019-04-22T14:28:00.221Z,7.07
2019-04-22T14:30:24.730Z,7.80
2019-04-22T14:32:54.391Z,7.27
2019-04-22T14:35:25.004Z,8.03
2019-04-22T14:37:56.341Z,7.33
2019-04-22T14:40:30.397Z,7.67
2019-04-22T14:43:22.768Z,6.83
2019-04-22T14:46:04.059Z,6.70
2019-04-22T14:48:33.459Z,6.00
2019-04-22T14:50:51.770Z,6.17
2019-04-22T14:53:27.604Z,5.70
2019-04-22T14:55:40.288Z,4.90
2019-04-22T14:58:10.988Z,5.37
2019-04-22T15:00:42.382Z,5.17
2019-04-22T15:03:13.506Z,4.60
2019-04-22T15:05:44.142Z,4.80
2019-04-22T15:08:15.073Z,4.47
2019-04-22T15:10:46.089Z,4.20
2019-04-22T15:13:15.826Z,3.23
2019-04-22T15:16:18.079Z,3.57
2019-04-22T15:19:07.662Z,3.47
2019-04-22T15:21:38.685Z,3.53
2019-04-22T15:24:25.147Z,3.33
2019-04-22T15:26:58.334Z,3.47
2019-04-22T15:29:29.610Z,3.33
2019-04-22T15:31:59.926Z,3.63
2019-04-22T15:34:30.638Z,3.80
2019-04-22T15:37:00.350Z,3.50
2019-04-22T15:39:31.317Z,3.70
2019-04-22T15:42:11.707Z,3.70
2019-04-22T15:44:33.850Z,3.60
2019-04-22T15:47:04.879Z,3.33
2019-04-22T15:49:36.023Z,3.60
2019-04-22T15:52:07.796Z,3.53
2019-04-22T15:54:37.713Z,3.40
2019-04-22T15:57:08.751Z,3.80
2019-04-22T15:59:54.076Z,3.60
2019-04-22T16:02:11.955Z,3.50
2019-04-22T16:04:41.554Z,3.47
2019-04-22T16:07:12.619Z,3.80
2019-04-22T16:09:43.503Z,3.80
2019-04-22T16:12:19.961Z,3.50
2019-04-22T16:14:50.627Z,3.80
2019-04-22T16:17:16.871Z,3.40
2019-04-22T16:19:46.806Z,3.70
2019-04-22T16:22:19.073Z,3.67
2019-04-22T16:25:11.151Z,3.50
2019-04-22T16:27:42.797Z,3.47
2019-04-22T16:30:13.121Z,4.10
2019-04-22T16:32:45.338Z,3.83
2019-04-22T16:35:16.684Z,3.50
2019-04-22T16:37:46.611Z,3.60
2019-04-22T16:40:16.806Z,3.53
2019-04-22T16:42:54.584Z,3.57
2019-04-22T16:45:21.811Z,3.60
2019-04-22T16:47:51.577Z,3.87
2019-04-22T16:50:21.375Z,4.30
2019-04-22T16:52:52.402Z,4.60
2019-04-22T16:55:23.068Z,3.90
2019-04-22T16:57:52.926Z,4.03
2019-04-22T17:00:24.913Z,4.13
2019-04-22T17:03:20.679Z,4.40
2019-04-22T17:06:17.379Z,4.60
2019-04-22T17:08:48.606Z,4.37
2019-04-22T17:11:20.012Z,4.97
2019-04-22T17:13:50.168Z,4.50
2019-04-22T17:16:20.430Z,4.37
2019-04-22T17:18:50.140Z,5.00
2019-04-22T17:21:19.853Z,4.13
2019-04-22T17:23:49.848Z,4.20
2019-04-22T17:26:20.705Z,4.80
2019-04-22T17:28:51.333Z,4.33
2019-04-22T17:31:21.058Z,4.50
2019-04-22T17:33:50.907Z,4.80
2019-04-22T17:36:22.245Z,4.37
2019-04-22T17:39:01.230Z,4.77
2019-04-22T17:41:38.834Z,5.40
2019-04-22T17:44:18.938Z,4.47
2019-04-22T17:46:50.996Z,4.90
2019-04-22T17:49:37.266Z,4.77
2019-04-22T17:54:50.570Z,4.80
2019-04-22T17:57:23.883Z,4.73
2019-04-22T17:59:53.727Z,4.57
2019-04-22T18:02:25.053Z,5.33
2019-04-22T18:04:53.073Z,5.30
2019-04-22T18:07:38.428Z,6.07
2019-04-22T18:12:44.185Z,10.53
2019-04-22T18:15:13.377Z,8.73
2019-04-22T18:17:52.060Z,9.20
2019-04-22T18:20:14.517Z,8.83
2019-04-22T18:22:41.800Z,7.33
2019-04-22T18:25:16.344Z,6.60
2019-04-22T18:27:59.047Z,5.97
2019-04-22T18:30:21.882Z,6.10
2019-04-22T18:32:58.040Z,6.40
2019-04-22T18:35:29.639Z,6.50
2019-04-22T18:38:05.160Z,6.23
2019-04-22T18:40:31.042Z,6.27
2019-04-22T18:43:07.885Z,6.40
2019-04-22T18:45:47.542Z,6.90
2019-04-22T18:48:05.586Z,7.30
2019-04-22T18:50:53.614Z,6.90
2019-04-22T18:53:44.661Z,8.07
2019-04-22T18:56:19.111Z,8.40
2019-04-22T18:58:39.347Z,8.10
2019-04-22T19:01:05.823Z,8.57
2019-04-22T19:03:44.740Z,8.60
2019-04-22T19:06:35.498Z,9.10
2019-04-22T19:09:05.302Z,9.10
2019-04-22T19:11:37.461Z,9.80
2019-04-22T19:14:06.000Z,9.30
2019-04-22T19:16:36.000Z,9.80
2019-04-22T19:19:24.468Z,9.27
2019-04-22T19:21:38.034Z,9.20
2019-04-22T19:24:04.305Z,8.37
2019-04-22T19:26:50.397Z,8.77
2019-04-22T19:29:12.316Z,8.57
2019-04-22T19:31:49.609Z,9.77
2019-04-22T19:34:16.464Z,9.13
2019-04-22T19:36:46.230Z,9.70
2019-04-22T19:39:14.780Z,10.23
2019-04-22T19:41:55.577Z,9.73
2019-04-22T19:44:27.527Z,9.97
2019-04-22T19:47:13.057Z,9.93
2019-04-22T19:49:33.321Z,10.13
2019-04-22T19:52:05.624Z,9.80
2019-04-22T19:54:34.157Z,10.23
2019-04-22T19:56:58.952Z,10.07
2019-04-22T19:59:36.698Z,10.53
2019-04-22T20:02:22.121Z,11.23
2019-04-22T20:05:20.080Z,10.53
2019-04-22T20:07:41.840Z,10.70
2019-04-22T20:10:22.459Z,10.23
2019-04-22T20:12:48.587Z,10.10
2019-04-22T20:15:19.988Z,9.77
2019-04-22T20:18:17.793Z,9.90
2019-04-22T20:20:31.731Z,9.53
2019-04-22T20:22:57.632Z,9.67
2019-04-22T20:25:21.467Z,9.70
2019-04-22T20:28:01.326Z,8.97
2019-04-22T20:30:36.078Z,9.43
2019-04-22T20:33:01.904Z,9.50
2019-04-22T20:35:40.399Z,9.50
2019-04-22T20:38:12.122Z,9.27
2019-04-22T20:40:39.845Z,9.33
2019-04-22T20:43:19.913Z,10.03
2019-04-22T20:45:46.200Z,8.77
2019-04-22T20:48:05.807Z,8.73
2019-04-22T20:50:47.921Z,8.97
2019-04-22T20:53:21.410Z,9.77
2019-04-22T20:55:48.141Z,8.43
2019-04-22T20:58:24.105Z,8.70
2019-04-22T21:00:46.565Z,9.87
2019-04-22T21:03:13.217Z,8.67
2019-04-22T21:05:43.087Z,9.33
2019-04-22T21:08:25.837Z,9.10
2019-04-22T21:10:47.325Z,10.33
2019-04-22T21:13:26.136Z,9.47
2019-04-22T21:16:04.026Z,9.27
2019-04-22T21:18:27.857Z,9.97
2019-04-22T21:21:09.636Z,9.60
2019-04-22T21:23:30.082Z,9.57
2019-04-22T21:26:08.244Z,8.63
2019-04-22T21:28:41.823Z,9.30
2019-04-22T21:31:14.852Z,9.60
2019-04-22T21:33:42.893Z,9.00
2019-04-22T21:36:20.162Z,9.17
2019-04-22T21:38:44.037Z,9.60
2019-04-22T21:41:17.715Z,9.47
2019-04-22T21:43:50.292Z,9.57
2019-04-22T21:46:18.547Z,9.03
2019-04-22T21:48:46.493Z,9.60
2019-04-22T21:51:24.573Z,10.50
2019-04-22T21:53:58.594Z,10.40
2019-04-22T21:59:12.881Z,9.57
2019-04-22T22:01:55.480Z,9.90
2019-04-22T22:04:22.023Z,10.53
2019-04-22T22:06:41.294Z,8.47
2019-04-22T22:09:25.288Z,8.90
2019-04-22T22:11:49.111Z,9.50
2019-04-22T22:14:26.111Z,9.57
2019-04-22T22:16:50.263Z,9.00
2019-04-22T22:19:30.164Z,9.03
2019-04-22T22:22:13.778Z,8.43
2019-04-22T22:24:33.913Z,8.00
2019-04-22T22:27:05.224Z,8.73
2019-04-22T22:29:43.665Z,9.53
2019-04-22T22:32:05.141Z,8.13
2019-04-22T22:34:34.848Z,8.50
2019-04-22T22:36:58.871Z,9.47
2019-04-22T22:39:31.075Z,9.23
2019-04-22T22:41:50.031Z,9.20
2019-04-22T22:44:27.248Z,9.17
2019-04-22T22:47:08.702Z,8.83
2019-04-22T22:49:46.984Z,9.17
2019-04-22T22:52:41.259Z,8.77
2019-04-22T22:54:53.103Z,9.83
2019-04-22T22:57:25.168Z,9.33
2019-04-22T22:59:51.215Z,9.83
2019-04-22T23:02:15.657Z,9.43
2019-04-22T23:04:55.864Z,9.10
2019-04-22T23:07:28.715Z,8.20
2019-04-22T23:09:53.762Z,8.60
2019-04-22T23:12:34.768Z,9.23
2019-04-22T23:14:55.803Z,9.57
2019-04-22T23:17:13.933Z,8.10
2019-04-22T23:19:45.954Z,9.63
2019-04-22T23:22:20.664Z,8.67
2019-04-22T23:25:14.402Z,9.03
2019-04-22T23:27:53.990Z,9.30
2019-04-22T23:30:38.244Z,9.43
2019-04-22T23:33:21.831Z,8.60
2019-04-22T23:36:10.097Z,8.67
2019-04-22T23:38:50.545Z,8.47
2019-04-22T23:46:42.638Z,9.43
2019-04-22T23:49:11.785Z,7.80
2019-04-22T23:51:55.391Z,7.57
2019-04-22T23:54:29.102Z,8.07
2019-04-22T23:56:53.579Z,8.27
2019-04-22T23:59:38.394Z,8.00
